Terminal Aerodrome Forecast
Issued by NWS Wakefield, VA

Home | Current Version | Previous Version | Text Only | Print | Product List | Glossary On
Versions: 1 2 3 4 5 6 7 8 9 10 11 12 13 14 15 16 17 18 19 20 21 22 23
401
FTUS41 KAKQ 291723
TAFRIC
TAF
KRIC 291723Z 2918/3018 33008KT P6SM SCT025 BKN050
     FM292200 03003KT P6SM SCT120 BKN250
     FM301200 13005KT P6SM SCT030 BKN080=

USA.gov is the U.S. government's official web portal to all federal, state and local government web resources and services.